createdAt,value
2022-08-20T00:00:28.873Z,16.83
2022-08-20T00:01:30.432Z,16.78
2022-08-20T00:02:39.142Z,16.85
2022-08-20T00:03:44.789Z,16.74
2022-08-20T00:04:53.272Z,16.86
2022-08-20T00:06:01.324Z,16.78
2022-08-20T00:07:02.886Z,16.70
2022-08-20T00:08:05.351Z,16.67
2022-08-20T00:09:07.453Z,16.71
2022-08-20T00:10:09.712Z,16.70
2022-08-20T00:11:13.309Z,16.73
2022-08-20T00:12:16.213Z,16.69
2022-08-20T00:13:21.639Z,16.65
2022-08-20T00:14:23.160Z,16.68
2022-08-20T00:15:29.120Z,16.71
2022-08-20T00:16:33.616Z,16.68
2022-08-20T00:17:35.138Z,16.74
2022-08-20T00:18:36.901Z,16.73
2022-08-20T00:19:39.779Z,16.78
2022-08-20T00:20:44.750Z,16.78
2022-08-20T00:21:46.289Z,16.77
2022-08-20T00:22:48.591Z,16.74
2022-08-20T00:23:51.773Z,16.67
2022-08-20T00:24:53.503Z,16.74
2022-08-20T00:25:55.071Z,16.80
2022-08-20T00:26:56.621Z,16.69
2022-08-20T00:27:58.945Z,16.80
2022-08-20T00:29:00.549Z,16.77
2022-08-20T00:30:02.765Z,16.81
2022-08-20T00:31:06.978Z,16.82
2022-08-20T00:32:08.523Z,16.78
2022-08-20T00:33:13.176Z,16.65
2022-08-20T00:34:14.691Z,16.66
2022-08-20T00:35:19.804Z,16.68
2022-08-20T00:36:22.241Z,16.67
2022-08-20T00:37:33.958Z,16.60
2022-08-20T00:38:36.512Z,16.67
2022-08-20T00:39:38.170Z,16.66
2022-08-20T00:40:42.531Z,16.65
2022-08-20T00:41:44.029Z,16.67
2022-08-20T00:42:48.543Z,16.62
2022-08-20T00:43:53.448Z,16.76
2022-08-20T00:44:56.130Z,16.76
2022-08-20T00:45:58.681Z,16.75
2022-08-20T00:47:00.792Z,16.70
2022-08-20T00:48:03.492Z,16.69
2022-08-20T00:49:07.331Z,16.73
2022-08-20T00:50:09.465Z,16.64
2022-08-20T00:51:18.116Z,16.70
2022-08-20T00:52:20.102Z,16.68
2022-08-20T00:53:23.749Z,16.63
2022-08-20T00:54:29.300Z,16.71
2022-08-20T00:55:32.562Z,16.63
2022-08-20T00:56:35.450Z,16.68
2022-08-20T00:57:54.824Z,16.73
2022-08-20T00:59:05.410Z,16.81
2022-08-20T01:00:10.899Z,16.86
2022-08-20T01:01:14.232Z,16.82
2022-08-20T01:02:17.056Z,16.88
2022-08-20T01:03:19.510Z,16.85
2022-08-20T01:04:21.062Z,16.72
2022-08-20T01:05:29.610Z,16.76
2022-08-20T01:06:32.819Z,16.81
2022-08-20T01:07:34.876Z,16.77
2022-08-20T01:08:36.431Z,16.85
2022-08-20T01:09:58.005Z,16.86
2022-08-20T01:11:00.377Z,16.81
2022-08-20T01:12:01.998Z,16.83
2022-08-20T01:13:06.990Z,16.77
2022-08-20T01:14:12.091Z,16.83
2022-08-20T01:15:15.800Z,16.69
2022-08-20T01:16:23.159Z,16.84
2022-08-20T01:17:26.749Z,16.98
2022-08-20T01:18:28.567Z,16.89
2022-08-20T01:19:33.738Z,16.89
2022-08-20T01:20:40.955Z,16.89
2022-08-20T01:21:47.970Z,16.89
2022-08-20T01:22:59.039Z,16.74
2022-08-20T01:24:07.691Z,16.87
2022-08-20T01:25:15.299Z,16.80
2022-08-20T01:26:20.890Z,16.84
2022-08-20T01:27:23.544Z,16.85
2022-08-20T01:28:30.570Z,16.80
2022-08-20T01:29:38.506Z,16.69
2022-08-20T01:30:40.544Z,16.70
2022-08-20T01:31:42.735Z,16.76
2022-08-20T01:32:44.490Z,16.63
2022-08-20T01:33:46.403Z,16.75
2022-08-20T01:34:48.802Z,16.65
2022-08-20T01:35:51.451Z,16.72
2022-08-20T01:36:55.385Z,16.76
2022-08-20T01:37:57.207Z,16.71
2022-08-20T01:38:59.841Z,16.69
2022-08-20T01:40:04.020Z,16.69
2022-08-20T01:41:28.962Z,16.65
2022-08-20T01:42:37.488Z,16.59
2022-08-20T01:43:56.417Z,16.64
2022-08-20T01:44:57.965Z,16.50
2022-08-20T01:46:02.070Z,16.51
2022-08-20T01:47:12.377Z,16.48
2022-08-20T01:48:17.799Z,16.55
2022-08-20T01:49:24.833Z,16.60
2022-08-20T01:50:30.729Z,16.46
2022-08-20T01:51:32.287Z,16.54
2022-08-20T01:52:39.737Z,16.50
2022-08-20T01:53:43.705Z,16.47
2022-08-20T01:54:45.526Z,16.48
2022-08-20T01:55:47.128Z,16.43
2022-08-20T01:56:56.777Z,16.45
2022-08-20T01:57:59.987Z,16.45
2022-08-20T01:59:05.025Z,16.44
2022-08-20T02:00:11.063Z,16.49
2022-08-20T02:01:26.121Z,16.43
2022-08-20T02:02:28.304Z,16.45
2022-08-20T02:03:33.546Z,16.43
2022-08-20T02:04:38.612Z,16.31
2022-08-20T02:05:40.128Z,16.37
2022-08-20T02:06:55.895Z,16.41
2022-08-20T02:07:58.566Z,16.38
2022-08-20T02:09:02.233Z,16.30
2022-08-20T02:10:05.136Z,16.28
2022-08-20T02:11:06.866Z,16.34
2022-08-20T02:12:11.066Z,16.33
2022-08-20T02:13:12.782Z,16.27
2022-08-20T02:14:15.562Z,16.26
2022-08-20T02:15:17.266Z,16.23
2022-08-20T02:16:39.946Z,16.21
2022-08-20T02:17:43.050Z,16.23
2022-08-20T02:18:44.901Z,16.21
2022-08-20T02:19:50.908Z,16.14
2022-08-20T02:20:52.903Z,16.17
2022-08-20T02:21:58.382Z,16.19
2022-08-20T02:23:00.507Z,16.18
2022-08-20T02:24:02.028Z,16.22
2022-08-20T02:25:05.925Z,16.28
2022-08-20T02:26:07.477Z,16.21
2022-08-20T02:27:10.634Z,16.16
2022-08-20T02:28:14.918Z,16.12
2022-08-20T02:29:16.629Z,16.09
2022-08-20T02:30:27.473Z,16.20
2022-08-20T02:31:34.207Z,16.11
2022-08-20T02:32:36.706Z,16.23
2022-08-20T02:33:39.142Z,16.15
2022-08-20T02:34:40.841Z,16.16
2022-08-20T02:35:45.117Z,16.11
2022-08-20T02:36:46.621Z,16.04
2022-08-20T02:37:48.117Z,16.11
2022-08-20T02:38:49.621Z,16.06
2022-08-20T02:39:51.176Z,16.01
2022-08-20T02:40:52.988Z,16.01
2022-08-20T02:41:54.520Z,15.91
2022-08-20T02:42:58.009Z,15.84
2022-08-20T02:43:59.521Z,15.87
2022-08-20T02:45:01.595Z,15.92
2022-08-20T02:46:04.144Z,15.88
2022-08-20T02:47:06.898Z,15.87
2022-08-20T02:48:08.429Z,15.85
2022-08-20T02:49:09.957Z,15.80
2022-08-20T02:50:14.939Z,15.83
2022-08-20T02:51:16.541Z,15.78
2022-08-20T02:52:19.250Z,15.78
2022-08-20T02:53:27.760Z,15.90
2022-08-20T02:54:29.336Z,15.87
2022-08-20T02:55:30.899Z,15.86
2022-08-20T02:56:32.742Z,15.93
2022-08-20T02:57:35.199Z,15.91
2022-08-20T02:58:39.266Z,15.91
2022-08-20T02:59:40.809Z,15.88
2022-08-20T03:00:44.169Z,15.99
2022-08-20T03:01:45.679Z,15.91
2022-08-20T03:02:47.784Z,15.98
2022-08-20T03:03:49.303Z,15.92
2022-08-20T03:04:50.815Z,15.98
2022-08-20T03:05:57.326Z,15.97
2022-08-20T03:06:59.130Z,15.97
2022-08-20T03:08:00.647Z,15.95
2022-08-20T03:09:02.141Z,15.97
2022-08-20T03:10:04.146Z,15.98
2022-08-20T03:11:06.662Z,15.97
2022-08-20T03:12:08.610Z,15.97
2022-08-20T03:13:10.940Z,15.90
2022-08-20T03:14:13.750Z,15.99
2022-08-20T03:15:18.717Z,16.04
2022-08-20T03:16:20.217Z,15.90
2022-08-20T03:17:21.698Z,16.03
2022-08-20T03:18:25.705Z,15.95
2022-08-20T03:19:27.976Z,16.04
2022-08-20T03:20:29.761Z,16.07
2022-08-20T03:21:31.560Z,15.93
2022-08-20T03:22:33.093Z,15.96
2022-08-20T03:23:35.087Z,16.01
2022-08-20T03:24:37.086Z,16.02
2022-08-20T03:25:38.634Z,16.06
2022-08-20T03:26:40.182Z,16.03
2022-08-20T03:27:42.377Z,16.06
2022-08-20T03:28:44.231Z,16.06
2022-08-20T03:29:47.072Z,16.06
2022-08-20T03:30:48.679Z,16.04
2022-08-20T03:31:50.209Z,16.13
2022-08-20T03:32:52.152Z,16.13
2022-08-20T03:33:53.927Z,16.10
2022-08-20T03:34:55.506Z,16.06
2022-08-20T03:35:57.026Z,16.01
2022-08-20T03:36:58.669Z,16.02
2022-08-20T03:38:00.375Z,16.02
2022-08-20T03:39:06.033Z,15.89
2022-08-20T03:40:10.912Z,15.89
2022-08-20T03:41:12.899Z,15.84
2022-08-20T03:42:14.424Z,15.84
2022-08-20T03:43:16.501Z,15.82
2022-08-20T03:44:18.074Z,15.84
2022-08-20T03:45:22.908Z,15.97
2022-08-20T03:46:24.471Z,15.91
2022-08-20T03:47:26.456Z,16.05
2022-08-20T03:48:28.210Z,15.98
2022-08-20T03:49:29.679Z,15.89
2022-08-20T03:50:32.062Z,15.96
2022-08-20T03:51:56.996Z,15.90
2022-08-20T03:52:55.575Z,15.86
2022-08-20T03:53:57.548Z,15.77
2022-08-20T03:54:59.065Z,15.84
2022-08-20T03:56:03.674Z,15.76
2022-08-20T03:57:05.254Z,15.91
2022-08-20T03:58:15.663Z,15.84
2022-08-20T03:59:17.226Z,15.89
2022-08-20T04:00:22.700Z,15.95
2022-08-20T04:01:45.099Z,15.84
2022-08-20T04:02:45.698Z,15.84
2022-08-20T04:03:48.007Z,15.76
2022-08-20T04:04:51.577Z,15.84
2022-08-20T04:05:53.465Z,15.81
2022-08-20T04:06:54.940Z,15.83
2022-08-20T04:07:57.921Z,15.91
2022-08-20T04:09:04.961Z,15.89
2022-08-20T04:10:08.810Z,15.87
2022-08-20T04:11:10.526Z,15.86
2022-08-20T04:12:12.006Z,15.96
2022-08-20T04:13:14.813Z,15.83
2022-08-20T04:14:18.751Z,15.77
2022-08-20T04:15:22.522Z,15.81
2022-08-20T04:16:24.019Z,15.76
2022-08-20T04:17:25.472Z,15.77
2022-08-20T04:18:27.028Z,15.74
2022-08-20T04:19:32.502Z,15.78
2022-08-20T04:20:39.558Z,15.74
2022-08-20T04:21:41.027Z,15.74
2022-08-20T04:22:42.525Z,15.72
2022-08-20T04:23:59.099Z,15.72
2022-08-20T04:25:00.575Z,15.69
2022-08-20T04:26:02.132Z,15.65
2022-08-20T04:27:03.916Z,15.72
2022-08-20T04:28:06.947Z,15.71
2022-08-20T04:29:08.943Z,15.70
2022-08-20T04:30:13.456Z,15.73
2022-08-20T04:31:16.292Z,15.66
2022-08-20T04:32:17.922Z,15.67
2022-08-20T04:33:19.596Z,15.56
2022-08-20T04:34:36.632Z,15.63
2022-08-20T04:35:38.211Z,15.52
2022-08-20T04:36:39.722Z,15.62
2022-08-20T04:37:41.822Z,15.57
2022-08-20T04:38:47.947Z,15.61
2022-08-20T04:39:52.333Z,15.62
2022-08-20T04:40:53.984Z,15.70
2022-08-20T04:41:55.444Z,15.58
2022-08-20T04:42:57.405Z,15.54
2022-08-20T04:43:58.891Z,15.68
2022-08-20T04:45:00.412Z,15.58
2022-08-20T04:46:04.716Z,15.56
2022-08-20T04:47:07.541Z,15.64
2022-08-20T04:48:14.288Z,15.51
2022-08-20T04:49:16.658Z,15.57
2022-08-20T04:50:19.776Z,15.64
2022-08-20T04:51:22.854Z,15.58
2022-08-20T04:52:25.069Z,15.59
2022-08-20T04:53:27.847Z,15.56
2022-08-20T04:54:29.377Z,15.65
2022-08-20T04:55:31.079Z,15.58
2022-08-20T04:56:35.223Z,15.66
2022-08-20T04:57:36.856Z,15.66
2022-08-20T04:58:39.910Z,15.64
2022-08-20T04:59:41.413Z,15.66
2022-08-20T05:00:46.596Z,15.68
2022-08-20T05:01:48.087Z,15.72
2022-08-20T05:02:50.886Z,15.65
2022-08-20T05:03:53.750Z,15.73
2022-08-20T05:04:55.222Z,15.68
2022-08-20T05:05:57.535Z,15.63
2022-08-20T05:06:58.998Z,15.69
2022-08-20T05:08:01.164Z,15.62
2022-08-20T05:09:02.799Z,15.63
2022-08-20T05:10:05.589Z,15.55
2022-08-20T05:11:33.429Z,15.61
2022-08-20T05:12:29.557Z,15.64
2022-08-20T05:13:31.111Z,15.65
2022-08-20T05:14:32.639Z,15.65
2022-08-20T05:15:34.463Z,15.70
2022-08-20T05:16:37.241Z,15.67
2022-08-20T05:17:39.528Z,15.79
2022-08-20T05:18:42.323Z,15.78
2022-08-20T05:19:43.801Z,15.69
2022-08-20T05:20:46.570Z,15.81
2022-08-20T05:21:48.100Z,15.85
2022-08-20T05:22:49.606Z,15.92
2022-08-20T05:23:51.101Z,15.84
2022-08-20T05:24:52.646Z,15.81
2022-08-20T05:25:54.176Z,15.86
2022-08-20T05:26:56.161Z,15.87
2022-08-20T05:27:58.832Z,15.87
2022-08-20T05:29:00.402Z,15.95
2022-08-20T05:30:04.616Z,15.96
2022-08-20T05:31:07.887Z,15.97
2022-08-20T05:32:09.402Z,15.95
2022-08-20T05:33:12.501Z,15.94
2022-08-20T05:34:15.833Z,15.95
2022-08-20T05:35:17.458Z,15.96
2022-08-20T05:36:18.961Z,15.97
2022-08-20T05:37:20.566Z,15.98
2022-08-20T05:38:25.285Z,16.11
2022-08-20T05:39:26.756Z,16.14
2022-08-20T05:40:28.602Z,16.07
2022-08-20T05:41:30.659Z,16.08
2022-08-20T05:42:32.237Z,16.02
2022-08-20T05:43:33.738Z,16.04
2022-08-20T05:44:35.300Z,16.02
2022-08-20T05:45:39.293Z,16.04
2022-08-20T05:46:42.029Z,16.17
2022-08-20T05:47:43.794Z,16.12
2022-08-20T05:48:47.173Z,16.08
2022-08-20T05:49:50.014Z,16.21
2022-08-20T05:50:53.241Z,16.08
2022-08-20T05:51:54.694Z,16.18
2022-08-20T05:52:56.126Z,16.14
2022-08-20T05:53:59.287Z,16.05
2022-08-20T05:55:01.490Z,16.09
2022-08-20T05:56:03.574Z,16.13
2022-08-20T05:57:05.119Z,16.24
2022-08-20T05:58:13.806Z,16.18
2022-08-20T05:59:15.450Z,16.18
2022-08-20T06:00:17.099Z,16.24
2022-08-20T06:01:18.643Z,16.26
2022-08-20T06:02:20.179Z,16.15
2022-08-20T06:03:24.962Z,16.14
2022-08-20T06:04:26.461Z,16.24
2022-08-20T06:05:29.245Z,16.23
2022-08-20T06:06:45.318Z,16.31
2022-08-20T06:07:48.037Z,16.31
2022-08-20T06:08:49.571Z,16.32
2022-08-20T06:09:52.439Z,16.33
2022-08-20T06:10:53.982Z,16.45
2022-08-20T06:11:55.520Z,16.37
2022-08-20T06:13:00.913Z,16.44
2022-08-20T06:14:02.401Z,16.38
2022-08-20T06:15:04.610Z,16.41
2022-08-20T06:16:06.823Z,16.50
2022-08-20T06:17:13.404Z,16.63
2022-08-20T06:18:27.640Z,16.65
2022-08-20T06:19:32.306Z,16.64
2022-08-20T06:20:40.246Z,16.64
2022-08-20T06:21:42.088Z,16.70
2022-08-20T06:22:43.773Z,16.72
2022-08-20T06:23:56.595Z,16.76
2022-08-20T06:24:59.112Z,16.78
2022-08-20T06:26:00.618Z,16.91
2022-08-20T06:27:04.668Z,16.95
2022-08-20T06:28:06.441Z,16.96
2022-08-20T06:29:08.568Z,16.99
2022-08-20T06:30:13.164Z,16.96
2022-08-20T06:31:14.742Z,17.05
2022-08-20T06:32:16.638Z,17.01
2022-08-20T06:33:18.189Z,17.02
2022-08-20T06:34:19.757Z,16.94
2022-08-20T06:35:21.231Z,17.02
2022-08-20T06:36:24.391Z,17.09
2022-08-20T06:37:31.110Z,16.97
2022-08-20T06:38:33.377Z,17.13
2022-08-20T06:39:40.365Z,16.99
2022-08-20T06:40:42.081Z,17.09
2022-08-20T06:41:43.573Z,17.19
2022-08-20T06:42:48.497Z,17.18
2022-08-20T06:43:50.509Z,17.28
2022-08-20T06:44:52.412Z,17.24
2022-08-20T06:45:53.999Z,17.22
2022-08-20T06:47:00.424Z,17.33
2022-08-20T06:48:06.820Z,17.26
2022-08-20T06:49:08.289Z,17.30
2022-08-20T06:50:10.949Z,17.28
2022-08-20T06:51:12.430Z,17.39
2022-08-20T06:52:15.792Z,17.37
2022-08-20T06:53:20.317Z,17.39
2022-08-20T06:54:21.773Z,17.38
2022-08-20T06:55:30.133Z,17.46
2022-08-20T06:56:31.661Z,17.41
2022-08-20T06:57:35.599Z,17.42
2022-08-20T06:58:38.786Z,17.47
2022-08-20T06:59:40.467Z,17.53
2022-08-20T07:00:43.840Z,17.56
2022-08-20T07:01:45.403Z,17.70
2022-08-20T07:02:46.928Z,17.72
2022-08-20T07:03:55.386Z,17.84
2022-08-20T07:04:57.377Z,17.89
2022-08-20T07:05:58.885Z,17.76
2022-08-20T07:07:00.403Z,18.03
2022-08-20T07:08:03.894Z,18.06
2022-08-20T07:09:05.376Z,18.09
2022-08-20T07:10:09.593Z,18.28
2022-08-20T07:11:11.266Z,18.47
2022-08-20T07:12:12.815Z,18.60
2022-08-20T07:13:15.007Z,18.83
2022-08-20T07:14:17.263Z,18.95
2022-08-20T07:15:21.978Z,18.97
2022-08-20T07:16:24.268Z,19.17
2022-08-20T07:17:25.950Z,19.10
2022-08-20T07:18:28.847Z,19.10
2022-08-20T07:19:30.618Z,18.66
2022-08-20T07:20:34.349Z,18.78
2022-08-20T07:21:36.273Z,18.86
2022-08-20T07:22:37.827Z,18.94
2022-08-20T07:23:40.761Z,19.01
2022-08-20T07:24:45.962Z,19.06
2022-08-20T07:25:50.742Z,18.96
2022-08-20T07:26:52.260Z,19.07
2022-08-20T07:28:01.334Z,18.87
2022-08-20T07:29:03.335Z,19.03
2022-08-20T07:30:10.919Z,18.89
2022-08-20T07:31:15.952Z,18.95
2022-08-20T07:32:17.701Z,19.12
2022-08-20T07:33:23.976Z,19.12
2022-08-20T07:34:26.071Z,19.19
2022-08-20T07:35:27.642Z,19.06
2022-08-20T07:36:29.167Z,19.19
2022-08-20T07:37:30.655Z,19.32
2022-08-20T07:38:33.526Z,19.22
2022-08-20T07:39:36.372Z,19.25
2022-08-20T07:40:37.916Z,19.17
2022-08-20T07:41:39.397Z,19.23
2022-08-20T07:42:41.085Z,19.11
2022-08-20T07:43:43.751Z,19.24
2022-08-20T07:44:45.213Z,19.33
2022-08-20T07:45:52.125Z,19.48
2022-08-20T07:46:53.724Z,19.50
2022-08-20T07:47:55.270Z,19.64
2022-08-20T07:48:56.819Z,19.61
2022-08-20T07:49:58.665Z,19.90
2022-08-20T07:51:02.081Z,20.07
2022-08-20T07:52:04.355Z,20.09
2022-08-20T07:53:09.099Z,19.71
2022-08-20T07:54:10.586Z,19.85
2022-08-20T07:55:16.022Z,19.60
2022-08-20T07:56:19.510Z,19.77
2022-08-20T07:57:21.051Z,19.92
2022-08-20T07:58:22.645Z,19.85
2022-08-20T07:59:29.425Z,19.84
2022-08-20T08:00:30.937Z,19.62
2022-08-20T08:01:32.529Z,19.77
2022-08-20T08:02:34.210Z,19.65
2022-08-20T08:03:40.920Z,19.80
2022-08-20T08:04:51.793Z,19.60
2022-08-20T08:05:54.700Z,19.52
2022-08-20T08:06:56.473Z,19.74
2022-08-20T08:07:58.339Z,19.58
2022-08-20T08:09:04.944Z,19.44
2022-08-20T08:10:09.909Z,19.66
2022-08-20T08:11:12.849Z,19.48
2022-08-20T08:12:15.215Z,19.76
2022-08-20T08:13:17.071Z,19.74
2022-08-20T08:14:23.054Z,19.56
2022-08-20T08:15:27.515Z,19.60
2022-08-20T08:16:29.089Z,19.76
2022-08-20T08:17:30.614Z,19.72
2022-08-20T08:18:37.646Z,19.90
2022-08-20T08:19:43.291Z,19.89
2022-08-20T08:20:52.145Z,19.99
2022-08-20T08:21:55.309Z,20.02
2022-08-20T08:22:57.161Z,19.93
2022-08-20T08:23:58.898Z,20.01
2022-08-20T08:25:00.621Z,19.98
2022-08-20T08:26:02.430Z,20.13
2022-08-20T08:27:05.581Z,20.09
2022-08-20T08:28:07.052Z,20.05
2022-08-20T08:29:08.537Z,20.14
2022-08-20T08:30:11.077Z,20.29
2022-08-20T08:31:13.431Z,20.19
2022-08-20T08:32:14.992Z,20.40
2022-08-20T08:33:21.245Z,20.46
2022-08-20T08:34:23.642Z,20.30
2022-08-20T08:35:25.394Z,20.35
2022-08-20T08:36:27.346Z,20.41
2022-08-20T08:37:30.821Z,20.40
2022-08-20T08:38:34.584Z,20.53
2022-08-20T08:39:36.076Z,20.58
2022-08-20T08:40:38.886Z,20.35
2022-08-20T08:41:42.187Z,20.40
2022-08-20T08:42:49.431Z,20.55
2022-08-20T08:43:53.528Z,20.36
2022-08-20T08:44:55.051Z,20.50
2022-08-20T08:46:00.773Z,20.36
2022-08-20T08:47:07.677Z,20.24
2022-08-20T08:48:13.102Z,20.19
2022-08-20T08:49:23.889Z,20.30
2022-08-20T08:50:53.851Z,20.34
2022-08-20T08:52:01.357Z,20.13
2022-08-20T08:53:05.077Z,20.28
2022-08-20T08:54:08.237Z,20.18
2022-08-20T08:55:15.855Z,20.56
2022-08-20T08:56:17.354Z,20.81
2022-08-20T08:57:18.999Z,21.04
2022-08-20T08:58:22.110Z,21.23
2022-08-20T08:59:23.651Z,21.42
2022-08-20T09:00:25.893Z,21.47
2022-08-20T09:01:56.231Z,21.26
2022-08-20T09:02:56.192Z,21.15
2022-08-20T09:03:57.849Z,20.67
2022-08-20T09:05:02.224Z,20.79
2022-08-20T09:06:04.349Z,20.99
2022-08-20T09:07:10.366Z,21.16
2022-08-20T09:08:17.829Z,20.88
2022-08-20T09:09:22.251Z,20.92
2022-08-20T09:10:23.777Z,21.20
2022-08-20T09:11:25.310Z,21.09
2022-08-20T09:12:26.779Z,21.57
2022-08-20T09:13:29.713Z,21.77
2022-08-20T09:14:31.212Z,21.58
2022-08-20T09:15:33.357Z,21.83
2022-08-20T09:16:52.139Z,21.89
2022-08-20T09:17:55.205Z,22.08
2022-08-20T09:18:57.975Z,22.11
2022-08-20T09:19:59.493Z,22.17
2022-08-20T09:21:01.040Z,22.26
2022-08-20T09:22:08.389Z,22.04
2022-08-20T09:23:10.009Z,22.27
2022-08-20T09:24:11.522Z,21.94
2022-08-20T09:25:13.054Z,21.97
2022-08-20T09:26:14.603Z,21.63
2022-08-20T09:27:16.090Z,21.95
2022-08-20T09:28:17.782Z,22.07
2022-08-20T09:29:21.679Z,21.26
2022-08-20T09:30:23.242Z,20.95
2022-08-20T09:31:24.965Z,21.30
2022-08-20T09:32:26.449Z,21.49
2022-08-20T09:33:27.919Z,21.64
2022-08-20T09:34:29.376Z,21.60
2022-08-20T09:35:30.887Z,21.42
2022-08-20T09:36:33.034Z,21.34
2022-08-20T09:37:37.524Z,21.36
2022-08-20T09:38:39.339Z,21.49
2022-08-20T09:39:41.485Z,21.61
2022-08-20T09:40:43.486Z,21.78
2022-08-20T09:41:44.986Z,22.39
2022-08-20T09:42:46.734Z,22.76
2022-08-20T09:43:48.193Z,22.92
2022-08-20T09:44:51.171Z,22.94
2022-08-20T09:45:52.756Z,22.95
2022-08-20T09:46:54.223Z,22.82
2022-08-20T09:47:56.893Z,22.39
2022-08-20T09:48:58.845Z,22.52
2022-08-20T09:50:00.400Z,22.17
2022-08-20T09:51:02.167Z,22.37
2022-08-20T09:52:06.662Z,22.06
2022-08-20T09:53:09.453Z,22.01
2022-08-20T09:54:10.939Z,22.21
2022-08-20T09:55:19.342Z,22.25
2022-08-20T09:56:20.845Z,22.24
2022-08-20T09:57:22.658Z,22.25
2022-08-20T09:58:31.737Z,21.83
2022-08-20T09:59:35.584Z,21.75
2022-08-20T10:00:38.466Z,21.64
2022-08-20T10:01:40.079Z,21.65
2022-08-20T10:02:41.718Z,21.49
2022-08-20T10:03:44.327Z,21.65
2022-08-20T10:04:45.841Z,21.77
2022-08-20T10:05:47.568Z,21.61
2022-08-20T10:06:49.409Z,21.58
2022-08-20T10:07:50.868Z,21.75
2022-08-20T10:08:52.331Z,21.72
2022-08-20T10:09:53.785Z,21.61
2022-08-20T10:10:55.276Z,21.67
2022-08-20T10:11:56.734Z,21.49
2022-08-20T10:12:58.225Z,21.71
2022-08-20T10:13:59.719Z,21.82
2022-08-20T10:15:01.292Z,21.95
2022-08-20T10:16:04.484Z,21.86
2022-08-20T10:17:06.044Z,22.10
2022-08-20T10:18:07.531Z,22.13
2022-08-20T10:19:09.147Z,22.18
2022-08-20T10:20:13.108Z,22.19
2022-08-20T10:21:15.586Z,22.12
2022-08-20T10:22:17.052Z,21.99
2022-08-20T10:23:18.627Z,21.76
2022-08-20T10:24:20.846Z,21.68
2022-08-20T10:25:22.358Z,21.73
2022-08-20T10:26:23.865Z,21.70
2022-08-20T10:27:26.991Z,21.89
2022-08-20T10:28:28.464Z,21.91
2022-08-20T10:29:30.631Z,21.99
2022-08-20T10:30:32.238Z,22.09
2022-08-20T10:31:35.215Z,22.27
2022-08-20T10:32:36.701Z,22.23
2022-08-20T10:33:39.105Z,22.44
2022-08-20T10:34:41.629Z,22.47
2022-08-20T10:35:43.104Z,22.58
2022-08-20T10:36:44.902Z,22.75
2022-08-20T10:37:46.497Z,22.67
2022-08-20T10:38:47.945Z,22.57
2022-08-20T10:39:49.522Z,22.63
2022-08-20T10:40:52.332Z,22.12
2022-08-20T10:41:54.251Z,22.42
2022-08-20T10:42:55.792Z,22.95
2022-08-20T10:43:57.267Z,23.10
2022-08-20T10:44:58.800Z,23.59
2022-08-20T10:46:00.359Z,23.61
2022-08-20T10:47:15.514Z,23.76
2022-08-20T10:48:20.901Z,23.74
2022-08-20T10:49:23.235Z,23.32
2022-08-20T10:50:25.018Z,23.15
2022-08-20T10:51:32.821Z,23.20
2022-08-20T10:52:34.592Z,22.92
2022-08-20T10:53:36.179Z,23.30
2022-08-20T10:54:37.659Z,22.78
2022-08-20T10:55:39.205Z,22.80
2022-08-20T10:56:40.841Z,22.88
2022-08-20T10:57:43.448Z,22.74
2022-08-20T10:58:45.182Z,22.89
2022-08-20T10:59:49.262Z,23.02
2022-08-20T11:00:52.094Z,22.90
2022-08-20T11:01:53.637Z,22.90
2022-08-20T11:02:56.455Z,22.70
2022-08-20T11:03:57.920Z,22.58
2022-08-20T11:04:59.395Z,22.69
2022-08-20T11:06:01.493Z,22.29
2022-08-20T11:07:14.181Z,22.16
2022-08-20T11:08:15.661Z,22.21
2022-08-20T11:09:35.406Z,22.17
2022-08-20T11:10:37.340Z,22.11
2022-08-20T11:11:38.932Z,21.53
2022-08-20T11:12:40.503Z,21.74
2022-08-20T11:13:43.476Z,21.41
2022-08-20T11:14:45.581Z,21.40
2022-08-20T11:15:47.061Z,21.50
2022-08-20T11:16:48.534Z,21.61
2022-08-20T11:17:50.118Z,21.53
2022-08-20T11:18:52.982Z,21.51
2022-08-20T11:19:55.943Z,21.59
2022-08-20T11:20:57.692Z,21.47
2022-08-20T11:21:59.220Z,21.49
2022-08-20T11:23:04.254Z,21.45
2022-08-20T11:24:05.989Z,21.61
2022-08-20T11:25:08.059Z,21.51
2022-08-20T11:26:10.121Z,21.80
2022-08-20T11:27:17.762Z,21.82
2022-08-20T11:28:31.272Z,21.80
2022-08-20T11:29:34.120Z,22.01
2022-08-20T11:30:37.180Z,21.79
2022-08-20T11:31:38.732Z,22.06
2022-08-20T11:32:40.222Z,22.08
2022-08-20T11:33:41.732Z,22.11
2022-08-20T11:34:44.549Z,22.18
2022-08-20T11:35:49.112Z,22.36
2022-08-20T11:36:52.203Z,22.41
2022-08-20T11:37:55.637Z,22.50
2022-08-20T11:38:57.396Z,22.56
2022-08-20T11:40:01.730Z,22.37
2022-08-20T11:41:03.275Z,22.38
2022-08-20T11:42:05.583Z,22.37
2022-08-20T11:43:15.956Z,22.76
2022-08-20T11:44:20.669Z,22.95
2022-08-20T11:45:22.978Z,23.13
2022-08-20T11:46:28.439Z,23.19
2022-08-20T11:47:30.863Z,22.81
2022-08-20T11:48:32.356Z,23.15
2022-08-20T11:49:36.118Z,23.16
2022-08-20T11:50:38.946Z,23.16
2022-08-20T11:51:49.798Z,23.17
2022-08-20T11:52:51.639Z,22.90
2022-08-20T11:53:53.214Z,23.08
2022-08-20T11:54:55.561Z,22.69
2022-08-20T11:55:57.186Z,22.88
2022-08-20T11:56:58.842Z,22.51
2022-08-20T11:58:01.138Z,22.41
2022-08-20T11:59:02.890Z,22.50
2022-08-20T12:00:09.030Z,22.04
2022-08-20T12:01:10.561Z,20.94
2022-08-20T12:02:12.667Z,20.19
2022-08-20T12:03:14.667Z,20.37
2022-08-20T12:04:16.460Z,20.20
2022-08-20T12:05:18.964Z,20.10
2022-08-20T12:06:21.877Z,19.42
2022-08-20T12:07:25.060Z,19.67
2022-08-20T12:08:27.383Z,19.56
2022-08-20T12:09:29.570Z,19.49
2022-08-20T12:10:31.757Z,19.40
2022-08-20T12:11:33.298Z,19.37
2022-08-20T12:12:34.807Z,19.30
2022-08-20T12:13:48.960Z,18.95
2022-08-20T12:14:50.867Z,18.78
2022-08-20T12:15:53.881Z,19.00
2022-08-20T12:16:55.381Z,18.97
2022-08-20T12:17:56.871Z,18.98
2022-08-20T12:18:58.372Z,19.22
2022-08-20T12:20:04.632Z,19.03
2022-08-20T12:21:07.904Z,19.14
2022-08-20T12:22:24.548Z,19.45
2022-08-20T12:23:26.971Z,19.57
2022-08-20T12:24:28.538Z,19.55
2022-08-20T12:25:30.503Z,19.69
2022-08-20T12:26:32.020Z,19.23
2022-08-20T12:27:35.627Z,19.09
2022-08-20T12:28:37.474Z,18.85
2022-08-20T12:29:39.602Z,19.26
2022-08-20T12:30:41.335Z,19.28
2022-08-20T12:31:42.791Z,19.40
2022-08-20T12:32:44.364Z,19.32
2022-08-20T12:33:45.844Z,19.33
2022-08-20T12:34:47.460Z,18.92
2022-08-20T12:35:49.093Z,19.03
2022-08-20T12:36:50.563Z,19.01
2022-08-20T12:37:53.379Z,19.07
2022-08-20T12:38:54.871Z,18.96
2022-08-20T12:39:59.011Z,18.78
2022-08-20T12:41:00.634Z,18.87
2022-08-20T12:42:02.148Z,18.85
2022-08-20T12:43:03.885Z,18.99
2022-08-20T12:44:05.356Z,18.82
2022-08-20T12:45:08.179Z,18.76
2022-08-20T12:46:09.644Z,18.82
2022-08-20T12:47:13.006Z,18.94
2022-08-20T12:48:14.493Z,18.87
2022-08-20T12:49:16.013Z,18.96
2022-08-20T12:50:19.689Z,19.06
2022-08-20T12:51:21.163Z,18.99
2022-08-20T12:52:23.856Z,18.93
2022-08-20T12:53:26.800Z,19.07
2022-08-20T12:54:28.302Z,19.04
2022-08-20T12:55:30.231Z,18.79
2022-08-20T12:56:31.689Z,18.79
2022-08-20T12:57:35.230Z,18.81
2022-08-20T12:58:36.690Z,18.88
2022-08-20T12:59:38.160Z,18.66
2022-08-20T13:00:43.241Z,18.69
2022-08-20T13:01:44.921Z,18.86
2022-08-20T13:02:46.671Z,18.73
2022-08-20T13:03:48.131Z,18.78
2022-08-20T13:04:49.632Z,18.98
2022-08-20T13:05:51.109Z,19.11
2022-08-20T13:06:52.557Z,19.03
2022-08-20T13:07:54.706Z,18.77
2022-08-20T13:08:57.480Z,18.72
2022-08-20T13:09:59.531Z,18.76
2022-08-20T13:11:01.040Z,18.84
2022-08-20T13:12:02.935Z,18.80
2022-08-20T13:13:07.270Z,18.79
2022-08-20T13:14:08.734Z,18.85
2022-08-20T13:15:11.289Z,18.69
2022-08-20T13:16:12.809Z,18.72
2022-08-20T13:17:17.589Z,18.76
2022-08-20T13:18:19.854Z,18.66
2022-08-20T13:19:21.352Z,18.87
2022-08-20T13:20:25.119Z,18.82
2022-08-20T13:21:26.754Z,18.68
2022-08-20T13:22:28.247Z,18.54
2022-08-20T13:23:29.771Z,18.86
2022-08-20T13:24:32.641Z,18.73
2022-08-20T13:25:34.126Z,18.77
2022-08-20T13:26:35.582Z,18.67
2022-08-20T13:27:37.461Z,18.87
2022-08-20T13:28:39.033Z,19.15
2022-08-20T13:29:46.101Z,19.29
2022-08-20T13:30:47.733Z,19.49
2022-08-20T13:31:49.217Z,19.16
2022-08-20T13:32:50.976Z,19.15
2022-08-20T13:33:52.435Z,19.41
2022-08-20T13:34:53.961Z,19.56
2022-08-20T13:35:55.630Z,19.69